Time;durP1;ratioP1;P1;durP2;ratioP2;P2;SDS_P1;SDS_P2;PMS_P1;PMS_P2;Temp;Humidity;BMP_temperature;BMP_pressure;BME280_temperature;BME280_humidity;BME280_pressure;Samples;Min_cycle;Max_cycle;Signal;HPM_P1;HPM_P2
2024/01/09 00:01:43;;;;;;;11.18;4.90;;;;;;;;;;5018085;28;20033;-85
2024/01/09 00:04:09;;;;;;;12.77;5.72;;;;;;;;;;5044051;28;20573;-88
2024/01/09 00:06:35;;;;;;;13.18;5.40;;;;;;;;;;5021926;28;20049;-87
2024/01/09 00:09:02;;;;;;;13.30;5.63;;;;;;;;;;5010688;28;20432;-86
2024/01/09 00:11:27;;;;;;;;;;;;;;;;;;5005032;28;20509;-85
2024/01/09 00:13:56;;;;;;;13.40;5.75;;;;;;;;;;5002627;28;19912;-84
2024/01/09 00:16:22;;;;;;;13.00;5.18;;;;;;;;;;5027203;28;20400;-87
2024/01/09 00:18:53;;;;;;;15.23;5.43;;;;;;;;;;5021538;28;20554;-86
2024/01/09 00:21:22;;;;;;;11.63;5.18;;;;;;;;;;5020303;28;20038;-87
2024/01/09 00:23:47;;;;;;;11.73;5.45;;;;;;;;;;5036991;28;20393;-86
2024/01/09 00:26:18;;;;;;;13.60;5.30;;;;;;;;;;5025489;28;20029;-86
2024/01/09 00:28:44;;;;;;;14.02;5.32;;;;;;;;;;5027855;28;20457;-86
2024/01/09 00:31:09;;;;;;;13.95;6.07;;;;;;;;;;5034081;28;20048;-85
2024/01/09 00:33:35;;;;;;;13.10;5.88;;;;;;;;;;5032447;28;20041;-86
2024/01/09 00:36:03;;;;;;;13.60;5.70;;;;;;;;;;5030597;28;20063;-85
2024/01/09 00:38:28;;;;;;;10.98;4.97;;;;;;;;;;5035400;28;20029;-87
2024/01/09 00:40:54;;;;;;;15.93;5.75;;;;;;;;;;5024836;28;20399;-86
2024/01/09 00:43:19;;;;;;;14.05;5.88;;;;;;;;;;5021895;28;20441;-87
2024/01/09 00:45:45;;;;;;;12.25;5.32;;;;;;;;;;5018324;28;20406;-87
2024/01/09 00:48:11;;;;;;;13.32;5.72;;;;;;;;;;5035382;28;20154;-85
2024/01/09 00:50:36;;;;;;;11.30;5.13;;;;;;;;;;5025910;28;20034;-85
2024/01/09 00:53:03;;;;;;;14.82;6.90;;;;;;;;;;5042904;28;20362;-85
2024/01/09 00:55:28;;;;;;;9.52;5.13;;;;;;;;;;5017293;28;20044;-86
2024/01/09 00:57:54;;;;;;;16.40;6.28;;;;;;;;;;5024028;28;20025;-86
2024/01/09 01:00:19;;;;;;;11.25;4.93;;;;;;;;;;5021755;28;20059;-85
2024/01/09 01:02:45;;;;;;;13.77;6.15;;;;;;;;;;5041507;28;20033;-86
2024/01/09 01:05:15;;;;;;;13.77;6.03;;;;;;;;;;5033010;28;20512;-85
2024/01/09 01:07:40;;;;;;;11.80;5.38;;;;;;;;;;5020231;28;20499;-87
2024/01/09 01:10:05;;;;;;;13.73;6.07;;;;;;;;;;5012753;28;20064;-86
2024/01/09 01:12:31;;;;;;;13.40;5.85;;;;;;;;;;5039958;28;20388;-86
2024/01/09 01:14:56;;;;;;;13.52;6.20;;;;;;;;;;5037501;28;20075;-87
2024/01/09 01:17:21;;;;;;;13.48;6.28;;;;;;;;;;5036374;28;20037;-86
2024/01/09 01:19:47;;;;;;;15.05;5.78;;;;;;;;;;5023253;28;20071;-87
2024/01/09 01:22:12;;;;;;;16.10;5.90;;;;;;;;;;5041881;28;20880;-86
2024/01/09 01:24:37;;;;;;;12.70;5.40;;;;;;;;;;5038703;28;20385;-88
2024/01/09 01:27:08;;;;;;;14.38;5.70;;;;;;;;;;5027302;28;20048;-87
2024/01/09 01:29:34;;;;;;;18.17;6.20;;;;;;;;;;5030529;28;20507;-88
2024/01/09 01:32:02;;;;;;;14.13;5.90;;;;;;;;;;5019417;28;20171;-87
2024/01/09 01:34:27;;;;;;;15.38;6.70;;;;;;;;;;5005699;28;20037;-86
2024/01/09 01:36:53;;;;;;;13.93;6.43;;;;;;;;;;5018825;28;20098;-84
2024/01/09 01:39:18;;;;;;;14.32;6.18;;;;;;;;;;5020113;28;20041;-87
2024/01/09 01:41:44;;;;;;;15.50;6.10;;;;;;;;;;5015304;28;20048;-88
2024/01/09 01:44:16;;;;;;;13.10;5.90;;;;;;;;;;5033356;28;20802;-87
2024/01/09 01:46:43;;;;;;;14.60;6.38;;;;;;;;;;5039598;28;20536;-87
2024/01/09 01:49:10;;;;;;;12.70;6.00;;;;;;;;;;5030180;28;20041;-87
2024/01/09 01:51:35;;;;;;;14.60;6.20;;;;;;;;;;5025015;28;20033;-87
2024/01/09 01:54:05;;;;;;;14.75;6.35;;;;;;;;;;5017584;28;20043;-86
2024/01/09 01:56:31;;;;;;;13.93;6.38;;;;;;;;;;5022266;28;20036;-88
2024/01/09 01:59:00;;;;;;;14.80;6.30;;;;;;;;;;5039619;28;20038;-86
2024/01/09 02:01:26;;;;;;;13.82;5.88;;;;;;;;;;5023510;28;20548;-86
2024/01/09 02:04:03;;;;;;;14.40;6.18;;;;;;;;;;5024735;28;20100;-87
2024/01/09 02:06:30;;;;;;;13.68;6.13;;;;;;;;;;5029825;28;20090;-86
2024/01/09 02:08:55;;;;;;;15.65;6.30;;;;;;;;;;5019991;28;20048;-88
2024/01/09 02:11:25;;;;;;;14.23;6.25;;;;;;;;;;5024980;28;20042;-88
2024/01/09 02:13:51;;;;;;;13.50;6.28;;;;;;;;;;5025457;28;20033;-87
2024/01/09 02:16:16;;;;;;;14.43;6.93;;;;;;;;;;5019704;28;20063;-88
2024/01/09 02:18:47;;;;;;;15.93;6.32;;;;;;;;;;5023432;28;20033;-88
2024/01/09 02:21:12;;;;;;;15.82;6.43;;;;;;;;;;5029945;28;20109;-86
2024/01/09 02:23:40;;;;;;;14.50;5.93;;;;;;;;;;5038262;28;20113;-87
2024/01/09 02:26:06;;;;;;;14.85;7.18;;;;;;;;;;5021286;28;20404;-86
2024/01/09 02:28:36;;;;;;;16.35;6.10;;;;;;;;;;5017388;28;20133;-85
2024/01/09 02:31:02;;;;;;;14.55;6.25;;;;;;;;;;5020678;28;20055;-88
2024/01/09 02:33:30;;;;;;;16.98;7.22;;;;;;;;;;5040667;28;20116;-86
2024/01/09 02:35:56;;;;;;;16.70;7.00;;;;;;;;;;5026912;28;20057;-86
2024/01/09 02:38:23;;;;;;;13.40;6.30;;;;;;;;;;5023252;28;20049;-87
2024/01/09 02:40:48;;;;;;;15.07;6.55;;;;;;;;;;5037335;28;20405;-87
2024/01/09 02:43:17;;;;;;;17.77;7.07;;;;;;;;;;5040943;28;20043;-87
2024/01/09 02:45:42;;;;;;;17.05;7.10;;;;;;;;;;5028303;28;20022;-88
2024/01/09 02:48:07;;;;;;;16.60;6.43;;;;;;;;;;5042336;28;20163;-89
2024/01/09 02:50:33;;;;;;;15.25;6.45;;;;;;;;;;5044661;28;20059;-88
2024/01/09 02:52:58;;;;;;;17.23;6.57;;;;;;;;;;5035721;28;20124;-87
2024/01/09 02:55:24;;;;;;;16.40;7.25;;;;;;;;;;5020817;28;20021;-87
2024/01/09 02:57:49;;;;;;;19.65;7.22;;;;;;;;;;5046860;28;20040;-88
2024/01/09 03:00:15;;;;;;;17.50;7.28;;;;;;;;;;5024685;28;20047;-86
2024/01/09 03:02:41;;;;;;;16.23;7.75;;;;;;;;;;5036556;28;20423;-86
2024/01/09 03:05:06;;;;;;;14.77;7.38;;;;;;;;;;5023942;28;20091;-86
2024/01/09 03:07:35;;;;;;;14.88;7.25;;;;;;;;;;5039695;28;20025;-85
2024/01/09 03:10:04;;;;;;;16.13;6.88;;;;;;;;;;5017371;28;20048;-88
2024/01/09 03:12:32;;;;;;;17.35;6.85;;;;;;;;;;5021967;28;20563;-87
2024/01/09 03:14:58;;;;;;;17.60;7.10;;;;;;;;;;5024413;28;20095;-87
2024/01/09 03:17:26;;;;;;;18.67;7.35;;;;;;;;;;5021375;28;20037;-86
2024/01/09 03:19:52;;;;;;;16.20;6.82;;;;;;;;;;5043890;28;20088;-89
2024/01/09 03:22:17;;;;;;;14.90;6.95;;;;;;;;;;5035924;28;20036;-86
2024/01/09 03:24:45;;;;;;;16.65;7.50;;;;;;;;;;5024230;28;20033;-87
2024/01/09 03:27:12;;;;;;;15.55;6.60;;;;;;;;;;4996365;28;20107;-87
2024/01/09 03:29:37;;;;;;;21.25;7.53;;;;;;;;;;5024158;28;20459;-86
2024/01/09 03:32:04;;;;;;;16.27;7.40;;;;;;;;;;5004445;28;20112;-87
2024/01/09 03:34:30;;;;;;;12.23;6.45;;;;;;;;;;5019887;28;20029;-87
2024/01/09 03:36:58;;;;;;;15.65;7.15;;;;;;;;;;5021907;28;20120;-86
2024/01/09 03:39:26;;;;;;;18.33;7.50;;;;;;;;;;5043996;28;20063;-86
2024/01/09 03:41:54;;;;;;;14.07;6.75;;;;;;;;;;5003651;28;20013;-86
2024/01/09 03:44:19;;;;;;;15.85;7.40;;;;;;;;;;5023363;28;20128;-87
2024/01/09 03:46:45;;;;;;;16.42;7.55;;;;;;;;;;5040230;28;20473;-85
2024/01/09 03:49:11;;;;;;;17.10;7.63;;;;;;;;;;5002261;28;20152;-87
2024/01/09 03:51:36;;;;;;;19.20;7.40;;;;;;;;;;5008525;28;20060;-87
2024/01/09 03:54:01;;;;;;;18.48;8.23;;;;;;;;;;5028786;28;20040;-87
2024/01/09 03:56:27;;;;;;;16.20;7.45;;;;;;;;;;5015776;28;20037;-87
2024/01/09 03:58:52;;;;;;;16.63;7.35;;;;;;;;;;5018010;28;20038;-86
2024/01/09 04:01:18;;;;;;;19.02;7.82;;;;;;;;;;5002746;28;20041;-88
2024/01/09 04:03:44;;;;;;;16.20;7.28;;;;;;;;;;5014631;28;20044;-88
2024/01/09 04:06:09;;;;;;;18.70;7.70;;;;;;;;;;5022869;28;20044;-87
2024/01/09 04:08:34;;;;;;;18.65;7.47;;;;;;;;;;5018739;28;20033;-87
2024/01/09 04:11:03;;;;;;;16.70;6.72;;;;;;;;;;5040048;28;20496;-87
2024/01/09 04:13:28;;;;;;;16.25;7.22;;;;;;;;;;5032948;28;20029;-87
2024/01/09 04:15:54;;;;;;;18.48;7.60;;;;;;;;;;5022797;28;20519;-87
2024/01/09 04:18:19;;;;;;;19.42;8.10;;;;;;;;;;5022045;28;20397;-87
2024/01/09 04:20:45;;;;;;;21.05;8.85;;;;;;;;;;5006405;28;20060;-87
2024/01/09 04:23:13;;;;;;;18.60;7.65;;;;;;;;;;5017907;28;20033;-87
2024/01/09 04:25:38;;;;;;;19.77;7.85;;;;;;;;;;5011773;28;20040;-88
2024/01/09 04:28:06;;;;;;;16.60;6.70;;;;;;;;;;5031522;28;20124;-86
2024/01/09 04:30:32;;;;;;;16.08;7.47;;;;;;;;;;5000696;28;20471;-88
2024/01/09 04:32:57;;;;;;;21.92;7.90;;;;;;;;;;5036948;28;20037;-88
2024/01/09 04:35:23;;;;;;;19.20;8.10;;;;;;;;;;5039436;28;20041;-89
2024/01/09 04:37:49;;;;;;;19.65;8.10;;;;;;;;;;5017156;28;20090;-88
2024/01/09 04:40:15;;;;;;;15.02;7.97;;;;;;;;;;5028248;28;20423;-84
2024/01/09 04:42:40;;;;;;;18.38;7.50;;;;;;;;;;5010192;28;20033;-85
2024/01/09 04:45:06;;;;;;;17.05;8.05;;;;;;;;;;5018385;28;20090;-86
2024/01/09 04:47:31;;;;;;;18.95;8.32;;;;;;;;;;5030413;28;20036;-86
2024/01/09 04:49:57;;;;;;;18.50;8.23;;;;;;;;;;5032192;28;20056;-84
2024/01/09 04:52:23;;;;;;;20.52;8.80;;;;;;;;;;5025805;28;20039;-87
2024/01/09 04:54:48;;;;;;;19.05;8.45;;;;;;;;;;5006080;28;20108;-86
2024/01/09 04:57:15;;;;;;;22.63;8.65;;;;;;;;;;5017301;28;20353;-86
2024/01/09 04:59:42;;;;;;;17.95;8.60;;;;;;;;;;5027130;28;20382;-87
2024/01/09 05:02:08;;;;;;;18.63;8.00;;;;;;;;;;5022881;28;20091;-88
2024/01/09 05:04:46;;;;;;;19.25;8.20;;;;;;;;;;5021017;28;20037;-85
2024/01/09 05:07:11;;;;;;;23.33;9.25;;;;;;;;;;5032656;28;20045;-86
2024/01/09 05:09:37;;;;;;;20.05;8.10;;;;;;;;;;5010454;28;20033;-84
2024/01/09 05:12:06;;;;;;;20.63;8.57;;;;;;;;;;5011579;28;20095;-85
2024/01/09 05:14:31;;;;;;;20.40;8.40;;;;;;;;;;5024932;28;20068;-84
2024/01/09 05:16:57;;;;;;;21.40;8.82;;;;;;;;;;5023061;28;20068;-83
2024/01/09 05:19:28;;;;;;;21.45;9.23;;;;;;;;;;5013860;28;20048;-84
2024/01/09 05:21:59;;;;;;;16.58;8.10;;;;;;;;;;5036527;28;20036;-81
2024/01/09 05:24:25;;;;;;;16.42;7.43;;;;;;;;;;5021319;28;20558;-84
2024/01/09 05:26:51;;;;;;;20.33;8.95;;;;;;;;;;5041058;28;20034;-85
2024/01/09 05:29:18;;;;;;;18.77;8.02;;;;;;;;;;5014056;28;20045;-82
2024/01/09 05:31:44;;;;;;;19.05;8.48;;;;;;;;;;5006053;28;20523;-83
2024/01/09 05:34:10;;;;;;;21.92;9.35;;;;;;;;;;5038783;28;20033;-81
2024/01/09 05:36:44;;;;;;;16.70;8.00;;;;;;;;;;5027950;28;20037;-83
2024/01/09 05:39:10;;;;;;;20.45;8.82;;;;;;;;;;5028945;28;20040;-84
2024/01/09 05:41:35;;;;;;;16.38;8.23;;;;;;;;;;5026021;28;20037;-85
2024/01/09 05:44:01;;;;;;;24.80;9.00;;;;;;;;;;5037377;28;20048;-84
2024/01/09 05:46:26;;;;;;;21.77;9.27;;;;;;;;;;5020265;28;20033;-84
2024/01/09 05:48:52;;;;;;;22.48;8.40;;;;;;;;;;5040244;28;20041;-84
2024/01/09 05:51:18;;;;;;;19.13;8.88;;;;;;;;;;5038862;28;20029;-83
2024/01/09 05:53:45;;;;;;;20.13;9.07;;;;;;;;;;5039021;28;20528;-84
2024/01/09 05:56:10;;;;;;;;;;;;;;;;;;5016586;28;20492;-87
2024/01/09 05:58:36;;;;;;;22.17;8.82;;;;;;;;;;5041708;28;19920;-87
2024/01/09 06:01:01;;;;;;;20.50;9.55;;;;;;;;;;5034735;28;20139;-87
2024/01/09 06:03:28;;;;;;;21.48;9.30;;;;;;;;;;5012600;28;20131;-86
2024/01/09 06:05:54;;;;;;;19.42;9.38;;;;;;;;;;5020044;28;20032;-84
2024/01/09 06:08:19;;;;;;;19.70;8.38;;;;;;;;;;5022921;28;20033;-86
2024/01/09 06:10:45;;;;;;;23.35;9.07;;;;;;;;;;5025572;28;20041;-87
2024/01/09 06:13:12;;;;;;;19.35;8.90;;;;;;;;;;5017045;28;20042;-87
2024/01/09 06:15:38;;;;;;;18.83;9.50;;;;;;;;;;5009444;28;20029;-88
2024/01/09 06:18:03;;;;;;;20.80;9.32;;;;;;;;;;5016733;28;20041;-85
2024/01/09 06:20:29;;;;;;;21.23;9.93;;;;;;;;;;5018993;28;20515;-86
2024/01/09 06:22:54;;;;;;;22.20;9.50;;;;;;;;;;5025254;28;20091;-85
2024/01/09 06:25:20;;;;;;;20.67;9.60;;;;;;;;;;5015473;28;20043;-90
2024/01/09 06:28:06;;;;;;;24.35;9.50;;;;;;;;;;5019161;28;20083;-85
2024/01/09 06:30:34;;;;;;;25.15;9.80;;;;;;;;;;4964512;28;20054;-87
2024/01/09 06:33:15;;;;;;;22.17;9.65;;;;;;;;;;4929836;28;20039;-86
2024/01/09 06:35:43;;;;;;;22.17;9.30;;;;;;;;;;4954105;28;20092;-84
2024/01/09 06:38:09;;;;;;;25.25;9.48;;;;;;;;;;4974894;28;20101;-88
2024/01/09 06:40:36;;;;;;;24.50;10.23;;;;;;;;;;4977667;28;20042;-87
2024/01/09 06:43:05;;;;;;;21.13;9.55;;;;;;;;;;4975541;28;20050;-87
2024/01/09 06:45:32;;;;;;;23.73;10.27;;;;;;;;;;4956302;28;20031;-89
2024/01/09 06:48:00;;;;;;;24.48;10.20;;;;;;;;;;4969460;28;20689;-88
2024/01/09 06:50:25;;;;;;;29.58;10.52;;;;;;;;;;4943150;28;20070;-86
2024/01/09 06:52:54;;;;;;;24.30;9.57;;;;;;;;;;4968477;28;20078;-89
2024/01/09 06:55:20;;;;;;;26.95;9.95;;;;;;;;;;4945662;28;20071;-88
2024/01/09 06:57:45;;;;;;;22.13;9.75;;;;;;;;;;4958576;28;20039;-89
2024/01/09 07:00:16;;;;;;;26.65;9.90;;;;;;;;;;4956850;28;20564;-89
2024/01/09 07:02:42;;;;;;;21.15;9.02;;;;;;;;;;4938955;28;20570;-88
2024/01/09 07:05:08;;;;;;;24.60;10.13;;;;;;;;;;4950249;28;20034;-91
2024/01/09 07:07:33;;;;;;;22.85;9.98;;;;;;;;;;4972916;28;20083;-90
2024/01/09 07:09:59;;;;;;;28.85;10.98;;;;;;;;;;5016569;28;20057;-92
2024/01/09 07:12:25;;;;;;;29.40;11.27;;;;;;;;;;5011195;28;20112;-87
2024/01/09 07:14:54;;;;;;;21.40;9.27;;;;;;;;;;5042369;28;20124;-88
2024/01/09 07:17:19;;;;;;;21.42;9.70;;;;;;;;;;5038470;28;20055;-90
2024/01/09 07:19:45;;;;;;;22.27;10.23;;;;;;;;;;5032129;28;20120;-87
2024/01/09 07:22:11;;;;;;;27.60;10.10;;;;;;;;;;5025165;28;20033;-88
2024/01/09 07:24:39;;;;;;;28.20;11.25;;;;;;;;;;5014111;28;20072;-87
2024/01/09 07:27:30;;;;;;;25.02;10.30;;;;;;;;;;5030122;28;20068;-88
2024/01/09 07:29:55;;;;;;;37.92;17.35;;;;;;;;;;5022360;28;20065;-87
2024/01/09 07:32:21;;;;;;;33.42;13.13;;;;;;;;;;5043984;28;20064;-87
2024/01/09 07:34:50;;;;;;;27.73;12.60;;;;;;;;;;5035801;28;20124;-88
2024/01/09 07:37:16;;;;;;;26.33;11.93;;;;;;;;;;5018532;28;20032;-88
2024/01/09 07:39:41;;;;;;;25.80;11.63;;;;;;;;;;5014353;28;20052;-87
2024/01/09 07:42:13;;;;;;;26.10;11.73;;;;;;;;;;5015741;28;20042;-87
2024/01/09 07:44:39;;;;;;;28.45;11.32;;;;;;;;;;5016103;28;20124;-87
2024/01/09 07:47:04;;;;;;;23.45;11.77;;;;;;;;;;5020102;28;20083;-88
2024/01/09 07:49:30;;;;;;;28.40;12.02;;;;;;;;;;5020156;28;20033;-89
2024/01/09 07:51:58;;;;;;;26.00;11.95;;;;;;;;;;5021704;28;20046;-87
2024/01/09 07:54:29;;;;;;;29.05;11.57;;;;;;;;;;5025748;28;20087;-85
2024/01/09 07:57:07;;;;;;;30.75;11.43;;;;;;;;;;5029285;28;20041;-83
2024/01/09 07:59:33;;;;;;;23.35;11.68;;;;;;;;;;5036235;28;20033;-87
2024/01/09 08:02:00;;;;;;;27.90;11.70;;;;;;;;;;5042443;28;20485;-89
2024/01/09 08:04:25;;;;;;;26.58;11.95;;;;;;;;;;5041102;28;20107;-87
2024/01/09 08:06:54;;;;;;;28.70;11.50;;;;;;;;;;5007840;28;20025;-85
2024/01/09 08:09:20;;;;;;;23.67;11.20;;;;;;;;;;5015197;28;20040;-87
2024/01/09 08:11:52;;;;;;;26.83;11.60;;;;;;;;;;5033652;28;20551;-87
2024/01/09 08:14:18;;;;;;;33.13;11.50;;;;;;;;;;5032439;28;20060;-85
2024/01/09 08:16:43;;;;;;;26.08;11.70;;;;;;;;;;5032670;28;20037;-84
2024/01/09 08:19:09;;;;;;;28.75;11.32;;;;;;;;;;5014577;28;20076;-84
2024/01/09 08:21:35;;;;;;;24.63;10.95;;;;;;;;;;5037024;28;20482;-83
2024/01/09 08:24:04;;;;;;;30.13;11.88;;;;;;;;;;5011074;28;20095;-84
2024/01/09 08:26:33;;;;;;;24.52;10.40;;;;;;;;;;4995451;28;20025;-85
2024/01/09 08:29:06;;;;;;;27.70;11.52;;;;;;;;;;5021465;28;20045;-85
2024/01/09 08:31:33;;;;;;;23.13;10.95;;;;;;;;;;5014318;28;20034;-84
2024/01/09 08:33:59;;;;;;;29.23;11.65;;;;;;;;;;4988959;28;20689;-85
2024/01/09 08:36:25;;;;;;;24.70;11.50;;;;;;;;;;5035507;28;20025;-88
2024/01/09 08:38:53;;;;;;;28.17;11.88;;;;;;;;;;5026234;28;20493;-84
2024/01/09 08:41:36;;;;;;;26.48;12.73;;;;;;;;;;5020297;28;20038;-85
2024/01/09 08:44:02;;;;;;;25.55;10.98;;;;;;;;;;5037312;28;20504;-84
2024/01/09 08:46:28;;;;;;;28.10;12.38;;;;;;;;;;5029014;28;20063;-83
2024/01/09 08:48:53;;;;;;;28.60;11.95;;;;;;;;;;5012341;28;20576;-83
2024/01/09 08:51:24;;;;;;;32.33;12.85;;;;;;;;;;5014458;28;20107;-83
2024/01/09 08:53:53;;;;;;;26.73;11.75;;;;;;;;;;5028687;28;20045;-83
2024/01/09 08:56:18;;;;;;;35.03;12.10;;;;;;;;;;5035866;28;20037;-83
2024/01/09 08:58:43;;;;;;;29.85;11.85;;;;;;;;;;5036675;28;20559;-83
2024/01/09 09:01:10;;;;;;;31.48;12.00;;;;;;;;;;5023479;28;20037;-84
2024/01/09 09:03:36;;;;;;;28.77;12.02;;;;;;;;;;5031453;28;20072;-83
2024/01/09 09:06:02;;;;;;;33.42;12.07;;;;;;;;;;5017605;28;20037;-83
2024/01/09 09:08:27;;;;;;;28.80;12.63;;;;;;;;;;5027135;28;20045;-83
2024/01/09 09:10:52;;;;;;;32.33;12.60;;;;;;;;;;5037781;28;20105;-85
2024/01/09 09:13:27;;;;;;;30.50;12.60;;;;;;;;;;5028460;28;20045;-83
2024/01/09 09:15:52;;;;;;;32.55;12.43;;;;;;;;;;5030312;28;20056;-83
2024/01/09 09:18:17;;;;;;;31.52;12.95;;;;;;;;;;5017557;28;20073;-84
2024/01/09 09:20:43;;;;;;;24.27;11.65;;;;;;;;;;5014538;28;20114;-83
2024/01/09 09:23:08;;;;;;;26.50;12.60;;;;;;;;;;5036735;28;20412;-84
2024/01/09 09:25:33;;;;;;;29.52;11.50;;;;;;;;;;5038024;28;20052;-84
2024/01/09 09:27:59;;;;;;;29.30;12.18;;;;;;;;;;5035605;28;20048;-84
2024/01/09 09:30:25;;;;;;;26.58;11.85;;;;;;;;;;5021827;28;20537;-84
2024/01/09 09:32:51;;;;;;;25.87;11.60;;;;;;;;;;5034722;28;20104;-83
2024/01/09 09:35:16;;;;;;;26.30;11.23;;;;;;;;;;5013228;28;20128;-84
2024/01/09 09:37:44;;;;;;;28.23;11.88;;;;;;;;;;5028457;28;20064;-84
2024/01/09 09:40:11;;;;;;;26.58;11.93;;;;;;;;;;5037774;28;20045;-83
2024/01/09 09:42:36;;;;;;;27.48;12.48;;;;;;;;;;5030355;28;20036;-83
2024/01/09 09:45:05;;;;;;;23.52;11.98;;;;;;;;;;5041135;28;20124;-83
2024/01/09 09:47:33;;;;;;;26.60;12.77;;;;;;;;;;4995733;28;20026;-83
2024/01/09 09:49:59;;;;;;;26.80;13.25;;;;;;;;;;5022211;28;20037;-83
2024/01/09 09:52:24;;;;;;;34.53;13.05;;;;;;;;;;5036378;28;20090;-82
2024/01/09 09:54:53;;;;;;;27.88;11.98;;;;;;;;;;5003217;28;20124;-84
2024/01/09 09:57:19;;;;;;;29.75;12.52;;;;;;;;;;5012919;28;20036;-84
2024/01/09 09:59:45;;;;;;;25.27;12.55;;;;;;;;;;5033885;28;20474;-84
2024/01/09 10:02:19;;;;;;;29.08;14.48;;;;;;;;;;5017873;28;20116;-84
2024/01/09 10:04:48;;;;;;;26.95;13.02;;;;;;;;;;5017544;28;21069;-83
2024/01/09 10:07:20;;;;;;;27.70;12.73;;;;;;;;;;5020665;28;20962;-84
2024/01/09 10:09:49;;;;;;;28.75;12.48;;;;;;;;;;5035159;28;20072;-84
2024/01/09 10:12:14;;;;;;;30.45;13.20;;;;;;;;;;5035562;28;20044;-84
2024/01/09 10:15:01;;;;;;;28.02;12.73;;;;;;;;;;5033531;28;20029;-84
2024/01/09 10:17:26;;;;;;;31.53;13.33;;;;;;;;;;5005288;28;20045;-83
2024/01/09 10:19:51;;;;;;;30.42;13.40;;;;;;;;;;5021252;28;20475;-83
2024/01/09 10:22:17;;;;;;;30.15;13.57;;;;;;;;;;5034048;28;20388;-84
2024/01/09 10:24:42;;;;;;;30.20;13.20;;;;;;;;;;5034338;28;20036;-83
2024/01/09 10:27:19;;;;;;;27.35;12.48;;;;;;;;;;5026792;28;20033;-83
2024/01/09 10:29:45;;;;;;;27.65;12.15;;;;;;;;;;5036030;28;20046;-83
2024/01/09 10:32:13;;;;;;;30.40;12.73;;;;;;;;;;5033862;28;20045;-84
2024/01/09 10:34:39;;;;;;;25.30;11.60;;;;;;;;;;5036858;28;20032;-84
2024/01/09 10:37:08;;;;;;;28.83;13.10;;;;;;;;;;5024522;28;20439;-84
2024/01/09 10:39:33;;;;;;;27.00;12.27;;;;;;;;;;5037661;28;20160;-84
2024/01/09 10:42:11;;;;;;;29.40;12.30;;;;;;;;;;4999771;28;20057;-83
2024/01/09 10:44:39;;;;;;;27.05;12.23;;;;;;;;;;5022713;28;20435;-83
2024/01/09 10:47:09;;;;;;;24.17;11.70;;;;;;;;;;5028210;28;20044;-83
2024/01/09 10:49:40;;;;;;;26.30;11.95;;;;;;;;;;5026957;28;20052;-83
2024/01/09 10:52:13;;;;;;;35.85;13.27;;;;;;;;;;5018525;28;20392;-83
2024/01/09 10:54:45;;;;;;;27.35;11.50;;;;;;;;;;5036720;28;20038;-84
2024/01/09 10:57:15;;;;;;;23.27;11.30;;;;;;;;;;5037266;28;20037;-82
2024/01/09 10:59:42;;;;;;;24.95;10.93;;;;;;;;;;5016305;28;20033;-84
2024/01/09 11:02:32;;;;;;;24.75;11.55;;;;;;;;;;5035610;28;20029;-82
2024/01/09 11:04:58;;;;;;;25.30;12.02;;;;;;;;;;5028633;28;20053;-84
2024/01/09 11:07:23;;;;;;;23.90;11.93;;;;;;;;;;5024413;28;20746;-83
2024/01/09 11:09:49;;;;;;;20.77;10.80;;;;;;;;;;5025206;28;20034;-86
2024/01/09 11:12:27;;;;;;;21.75;11.20;;;;;;;;;;5014683;28;20112;-86
2024/01/09 11:15:05;;;;;;;26.80;12.05;;;;;;;;;;5034157;28;20533;-86
2024/01/09 11:17:31;;;;;;;27.15;11.77;;;;;;;;;;5039047;28;20508;-85
2024/01/09 11:19:59;;;;;;;23.60;11.65;;;;;;;;;;5019191;28;20041;-84
2024/01/09 11:22:24;;;;;;;26.08;11.63;;;;;;;;;;5038640;28;20971;-84
2024/01/09 11:24:56;;;;;;;26.58;11.85;;;;;;;;;;5023073;28;20025;-85
2024/01/09 11:27:21;;;;;;;25.70;11.63;;;;;;;;;;5036833;28;20048;-87
2024/01/09 11:29:49;;;;;;;22.25;11.07;;;;;;;;;;5010549;28;20037;-88
2024/01/09 11:32:15;;;;;;;25.10;11.70;;;;;;;;;;5004450;28;20100;-88
2024/01/09 11:34:52;;;;;;;23.15;11.45;;;;;;;;;;5026601;28;20485;-86
2024/01/09 11:37:21;;;;;;;24.75;12.00;;;;;;;;;;5018041;28;20064;-85
2024/01/09 11:39:46;;;;;;;20.67;11.10;;;;;;;;;;5020511;28;20128;-84
2024/01/09 11:42:12;;;;;;;24.38;11.88;;;;;;;;;;5037774;28;20108;-84
2024/01/09 11:44:38;;;;;;;27.38;12.52;;;;;;;;;;5034606;28;20037;-84
2024/01/09 11:47:06;;;;;;;22.10;11.32;;;;;;;;;;5034721;28;20060;-85
2024/01/09 11:49:32;;;;;;;22.42;11.75;;;;;;;;;;5029901;28;20040;-85
2024/01/09 11:51:57;;;;;;;22.27;12.32;;;;;;;;;;5011524;28;20492;-85
2024/01/09 11:54:23;;;;;;;21.92;11.40;;;;;;;;;;5033036;28;20475;-86
2024/01/09 11:56:51;;;;;;;20.60;11.90;;;;;;;;;;5009396;28;20078;-85
2024/01/09 11:59:20;;;;;;;24.35;12.00;;;;;;;;;;5029709;28;20061;-84
2024/01/09 12:01:47;;;;;;;25.05;12.57;;;;;;;;;;5033916;28;20164;-85
2024/01/09 12:04:14;;;;;;;23.60;12.55;;;;;;;;;;5034884;28;20112;-84
2024/01/09 12:06:40;;;;;;;21.33;11.23;;;;;;;;;;5036349;28;20060;-85
2024/01/09 12:09:05;;;;;;;21.92;12.90;;;;;;;;;;5030724;28;20068;-85
2024/01/09 12:11:30;;;;;;;22.77;11.80;;;;;;;;;;4996961;28;20025;-84
2024/01/09 12:14:03;;;;;;;21.27;11.75;;;;;;;;;;5031536;28;20389;-84
2024/01/09 12:16:29;;;;;;;26.38;12.40;;;;;;;;;;5010185;28;20037;-84
2024/01/09 12:18:56;;;;;;;20.40;11.15;;;;;;;;;;5018052;28;20048;-84
2024/01/09 12:21:26;;;;;;;22.73;12.10;;;;;;;;;;5033062;28;20038;-85
2024/01/09 12:23:53;;;;;;;22.30;11.95;;;;;;;;;;5030526;28;20048;-84
2024/01/09 12:26:19;;;;;;;22.42;12.10;;;;;;;;;;5034972;28;20399;-84
2024/01/09 12:28:46;;;;;;;21.90;11.63;;;;;;;;;;5018597;28;20488;-85
2024/01/09 12:31:12;;;;;;;20.50;10.87;;;;;;;;;;5038536;28;20037;-85
2024/01/09 12:33:38;;;;;;;24.20;11.50;;;;;;;;;;5038807;28;20346;-85
2024/01/09 12:36:04;;;;;;;20.88;11.65;;;;;;;;;;5023201;28;20407;-85
2024/01/09 12:38:30;;;;;;;24.60;12.35;;;;;;;;;;5023492;28;20033;-85
2024/01/09 12:41:01;;;;;;;24.05;12.25;;;;;;;;;;5022021;28;20101;-86
2024/01/09 12:43:27;;;;;;;22.70;11.68;;;;;;;;;;5021772;28;20029;-87
2024/01/09 12:45:56;;;;;;;21.52;11.35;;;;;;;;;;5027200;28;20516;-87
2024/01/09 12:48:30;;;;;;;21.17;11.27;;;;;;;;;;5037438;28;20047;-85
2024/01/09 12:50:59;;;;;;;23.05;11.32;;;;;;;;;;5020947;28;20600;-86
2024/01/09 12:53:33;;;;;;;20.10;11.25;;;;;;;;;;4997150;28;20121;-86
2024/01/09 12:56:03;;;;;;;24.92;10.63;;;;;;;;;;5034703;28;20041;-86
2024/01/09 12:58:28;;;;;;;22.17;11.35;;;;;;;;;;5026364;28;20041;-85
2024/01/09 13:00:54;;;;;;;19.55;10.32;;;;;;;;;;5033022;28;20087;-85
2024/01/09 13:03:22;;;;;;;21.27;10.85;;;;;;;;;;5019323;28;20112;-86
2024/01/09 13:05:48;;;;;;;20.15;10.50;;;;;;;;;;5027377;28;20078;-86
2024/01/09 13:08:13;;;;;;;20.60;10.20;;;;;;;;;;5011996;28;20396;-85
2024/01/09 13:10:39;;;;;;;21.50;11.23;;;;;;;;;;5016881;28;20091;-85
2024/01/09 13:13:27;;;;;;;21.73;11.93;;;;;;;;;;5037603;28;20040;-85
2024/01/09 13:15:53;;;;;;;22.92;11.00;;;;;;;;;;4980979;28;20057;-85
2024/01/09 13:18:18;;;;;;;21.27;11.27;;;;;;;;;;5013585;28;20052;-85
2024/01/09 13:20:44;;;;;;;22.73;10.75;;;;;;;;;;5019045;28;20056;-86
2024/01/09 13:23:10;;;;;;;23.25;10.57;;;;;;;;;;5043500;28;20064;-85
2024/01/09 13:25:35;;;;;;;23.02;11.15;;;;;;;;;;5041498;28;20451;-87
2024/01/09 13:28:01;;;;;;;25.75;11.13;;;;;;;;;;5038673;28;20038;-86
2024/01/09 13:30:27;;;;;;;33.45;11.07;;;;;;;;;;5020496;28;20152;-87
2024/01/09 13:32:53;;;;;;;19.00;9.85;;;;;;;;;;5020808;28;20033;-87
2024/01/09 13:35:18;;;;;;;25.25;10.05;;;;;;;;;;5025985;28;20489;-88
2024/01/09 13:38:09;;;;;;;22.80;10.02;;;;;;;;;;5038179;28;20090;-87
2024/01/09 13:40:37;;;;;;;18.98;9.65;;;;;;;;;;5037197;28;20069;-84
2024/01/09 13:43:03;;;;;;;18.23;9.70;;;;;;;;;;5042964;28;20042;-83
2024/01/09 13:45:31;;;;;;;23.48;10.73;;;;;;;;;;5005279;28;20383;-83
2024/01/09 13:47:57;;;;;;;23.02;9.48;;;;;;;;;;5029662;28;20394;-85
2024/01/09 13:50:26;;;;;;;16.77;9.48;;;;;;;;;;5019386;28;20098;-85
2024/01/09 13:52:52;;;;;;;25.95;10.52;;;;;;;;;;5031711;28;20052;-85
2024/01/09 13:55:17;;;;;;;20.20;9.75;;;;;;;;;;5018043;28;20032;-85
2024/01/09 13:57:43;;;;;;;19.98;9.45;;;;;;;;;;5036193;28;20025;-85
2024/01/09 14:00:13;;;;;;;23.38;10.27;;;;;;;;;;5037738;28;20052;-85
2024/01/09 14:02:53;;;;;;;20.77;10.20;;;;;;;;;;5025427;28;20037;-84
2024/01/09 14:05:19;;;;;;;20.17;10.07;;;;;;;;;;5017483;28;20040;-85
2024/01/09 14:07:45;;;;;;;19.02;9.48;;;;;;;;;;5012952;28;20039;-85
2024/01/09 14:10:11;;;;;;;22.33;9.60;;;;;;;;;;5022579;28;20522;-85
2024/01/09 14:12:44;;;;;;;19.17;9.20;;;;;;;;;;5035134;28;20037;-85
2024/01/09 14:15:09;;;;;;;20.63;9.65;;;;;;;;;;5037015;28;20045;-85
2024/01/09 14:17:36;;;;;;;21.15;9.90;;;;;;;;;;5037990;28;20496;-85
2024/01/09 14:20:04;;;;;;;17.92;8.90;;;;;;;;;;5004132;28;20052;-84
2024/01/09 14:22:37;;;;;;;20.35;9.15;;;;;;;;;;5013539;28;20112;-82
2024/01/09 14:25:03;;;;;;;21.85;9.48;;;;;;;;;;5025588;28;20060;-83